sensor_id;sensor_type;location;lat;lon;timestamp;P1;durP1;ratioP1;P2;durP2;ratioP2
49828;SDS011;35723;51.194;5.112;2023-11-21T00:00:15;34.25;;;20.80;;
49828;SDS011;35723;51.194;5.112;2023-11-21T00:02:41;37.03;;;20.20;;
49828;SDS011;35723;51.194;5.112;2023-11-21T00:05:09;35.25;;;20.08;;
49828;SDS011;35723;51.194;5.112;2023-11-21T00:07:38;36.35;;;19.48;;
49828;SDS011;35723;51.194;5.112;2023-11-21T00:10:04;32.97;;;18.52;;
49828;SDS011;35723;51.194;5.112;2023-11-21T00:12:30;34.80;;;19.98;;
49828;SDS011;35723;51.194;5.112;2023-11-21T00:14:57;37.50;;;19.98;;
49828;SDS011;35723;51.194;5.112;2023-11-21T00:17:23;37.13;;;20.08;;
49828;SDS011;35723;51.194;5.112;2023-11-21T00:19:49;35.22;;;19.90;;
49828;SDS011;35723;51.194;5.112;2023-11-21T00:22:17;36.53;;;19.65;;
49828;SDS011;35723;51.194;5.112;2023-11-21T00:24:43;36.72;;;20.83;;
49828;SDS011;35723;51.194;5.112;2023-11-21T00:27:09;40.08;;;21.65;;
49828;SDS011;35723;51.194;5.112;2023-11-21T00:29:35;38.30;;;21.02;;
49828;SDS011;35723;51.194;5.112;2023-11-21T00:32:00;38.33;;;20.52;;
49828;SDS011;35723;51.194;5.112;2023-11-21T00:34:26;38.03;;;21.40;;
49828;SDS011;35723;51.194;5.112;2023-11-21T00:36:52;39.13;;;21.65;;
49828;SDS011;35723;51.194;5.112;2023-11-21T00:39:18;41.60;;;22.25;;
49828;SDS011;35723;51.194;5.112;2023-11-21T00:41:43;36.60;;;20.27;;
49828;SDS011;35723;51.194;5.112;2023-11-21T00:44:10;36.17;;;20.30;;
49828;SDS011;35723;51.194;5.112;2023-11-21T00:46:36;38.55;;;20.45;;
49828;SDS011;35723;51.194;5.112;2023-11-21T00:49:02;35.78;;;19.08;;
49828;SDS011;35723;51.194;5.112;2023-11-21T00:51:29;30.98;;;18.48;;
49828;SDS011;35723;51.194;5.112;2023-11-21T00:53:55;36.20;;;18.25;;
49828;SDS011;35723;51.194;5.112;2023-11-21T00:56:21;34.85;;;18.05;;
49828;SDS011;35723;51.194;5.112;2023-11-21T00:58:47;32.47;;;17.73;;
49828;SDS011;35723;51.194;5.112;2023-11-21T01:01:15;33.17;;;18.02;;
49828;SDS011;35723;51.194;5.112;2023-11-21T01:03:41;36.40;;;18.10;;
49828;SDS011;35723;51.194;5.112;2023-11-21T01:06:07;33.58;;;18.10;;
49828;SDS011;35723;51.194;5.112;2023-11-21T01:08:34;33.25;;;18.45;;
49828;SDS011;35723;51.194;5.112;2023-11-21T01:11:00;36.83;;;18.60;;
49828;SDS011;35723;51.194;5.112;2023-11-21T01:13:26;38.50;;;20.30;;
49828;SDS011;35723;51.194;5.112;2023-11-21T01:15:53;40.45;;;20.88;;
49828;SDS011;35723;51.194;5.112;2023-11-21T01:18:18;46.00;;;22.20;;
49828;SDS011;35723;51.194;5.112;2023-11-21T01:20:44;47.47;;;22.83;;
49828;SDS011;35723;51.194;5.112;2023-11-21T01:23:11;48.42;;;24.65;;
49828;SDS011;35723;51.194;5.112;2023-11-21T01:25:38;48.83;;;24.75;;
49828;SDS011;35723;51.194;5.112;2023-11-21T01:28:03;49.13;;;24.95;;
49828;SDS011;35723;51.194;5.112;2023-11-21T01:30:29;47.97;;;23.83;;
49828;SDS011;35723;51.194;5.112;2023-11-21T01:32:54;52.00;;;24.80;;
49828;SDS011;35723;51.194;5.112;2023-11-21T01:35:20;49.08;;;24.38;;
49828;SDS011;35723;51.194;5.112;2023-11-21T01:37:46;56.85;;;24.65;;
49828;SDS011;35723;51.194;5.112;2023-11-21T01:40:13;47.28;;;24.50;;
49828;SDS011;35723;51.194;5.112;2023-11-21T01:42:39;46.53;;;24.20;;
49828;SDS011;35723;51.194;5.112;2023-11-21T01:45:05;48.05;;;23.77;;
49828;SDS011;35723;51.194;5.112;2023-11-21T01:47:33;58.53;;;24.92;;
49828;SDS011;35723;51.194;5.112;2023-11-21T01:50:00;44.58;;;22.73;;
49828;SDS011;35723;51.194;5.112;2023-11-21T01:52:29;91.63;;;23.35;;
49828;SDS011;35723;51.194;5.112;2023-11-21T01:54:55;51.50;;;21.88;;
49828;SDS011;35723;51.194;5.112;2023-11-21T01:57:22;54.40;;;21.73;;
49828;SDS011;35723;51.194;5.112;2023-11-21T01:59:48;39.80;;;20.45;;
49828;SDS011;35723;51.194;5.112;2023-11-21T02:02:14;40.10;;;20.33;;
49828;SDS011;35723;51.194;5.112;2023-11-21T02:04:41;67.85;;;20.73;;
49828;SDS011;35723;51.194;5.112;2023-11-21T02:07:07;47.28;;;20.08;;
49828;SDS011;35723;51.194;5.112;2023-11-21T02:09:33;51.58;;;20.13;;
49828;SDS011;35723;51.194;5.112;2023-11-21T02:11:59;36.80;;;19.63;;
49828;SDS011;35723;51.194;5.112;2023-11-21T02:14:28;41.60;;;21.15;;
49828;SDS011;35723;51.194;5.112;2023-11-21T02:16:55;41.30;;;20.38;;
49828;SDS011;35723;51.194;5.112;2023-11-21T02:19:22;43.47;;;21.27;;
49828;SDS011;35723;51.194;5.112;2023-11-21T02:21:50;38.10;;;20.70;;
49828;SDS011;35723;51.194;5.112;2023-11-21T02:24:20;39.53;;;20.73;;
49828;SDS011;35723;51.194;5.112;2023-11-21T02:26:47;49.75;;;20.73;;
49828;SDS011;35723;51.194;5.112;2023-11-21T02:29:20;40.85;;;21.15;;
49828;SDS011;35723;51.194;5.112;2023-11-21T02:31:53;49.72;;;21.50;;
49828;SDS011;35723;51.194;5.112;2023-11-21T02:34:20;37.38;;;20.50;;
49828;SDS011;35723;51.194;5.112;2023-11-21T02:36:47;52.63;;;21.55;;
49828;SDS011;35723;51.194;5.112;2023-11-21T02:39:16;42.25;;;19.58;;
49828;SDS011;35723;51.194;5.112;2023-11-21T02:41:43;43.95;;;20.10;;
49828;SDS011;35723;51.194;5.112;2023-11-21T02:44:09;48.58;;;19.48;;
49828;SDS011;35723;51.194;5.112;2023-11-21T02:46:35;34.13;;;18.73;;
49828;SDS011;35723;51.194;5.112;2023-11-21T02:49:05;35.28;;;19.17;;
49828;SDS011;35723;51.194;5.112;2023-11-21T02:51:31;55.20;;;19.98;;
49828;SDS011;35723;51.194;5.112;2023-11-21T02:53:57;41.60;;;19.90;;
49828;SDS011;35723;51.194;5.112;2023-11-21T02:56:27;34.67;;;19.55;;
49828;SDS011;35723;51.194;5.112;2023-11-21T02:58:55;38.28;;;20.48;;
49828;SDS011;35723;51.194;5.112;2023-11-21T03:01:21;37.70;;;19.08;;
49828;SDS011;35723;51.194;5.112;2023-11-21T03:03:48;46.03;;;20.27;;
49828;SDS011;35723;51.194;5.112;2023-11-21T03:06:16;39.58;;;19.92;;
49828;SDS011;35723;51.194;5.112;2023-11-21T03:08:45;35.65;;;18.83;;
49828;SDS011;35723;51.194;5.112;2023-11-21T03:11:11;45.25;;;20.02;;
49828;SDS011;35723;51.194;5.112;2023-11-21T03:13:40;52.70;;;20.55;;
49828;SDS011;35723;51.194;5.112;2023-11-21T03:16:09;34.38;;;19.85;;
49828;SDS011;35723;51.194;5.112;2023-11-21T03:18:39;38.95;;;20.05;;
49828;SDS011;35723;51.194;5.112;2023-11-21T03:21:05;47.28;;;20.25;;
49828;SDS011;35723;51.194;5.112;2023-11-21T03:23:33;36.25;;;19.35;;
49828;SDS011;35723;51.194;5.112;2023-11-21T03:26:00;35.83;;;19.63;;
49828;SDS011;35723;51.194;5.112;2023-11-21T03:28:25;41.22;;;20.70;;
49828;SDS011;35723;51.194;5.112;2023-11-21T03:30:55;59.67;;;22.75;;
49828;SDS011;35723;51.194;5.112;2023-11-21T03:33:21;41.47;;;21.40;;
49828;SDS011;35723;51.194;5.112;2023-11-21T03:35:47;44.20;;;22.33;;
49828;SDS011;35723;51.194;5.112;2023-11-21T03:38:14;45.85;;;21.83;;
49828;SDS011;35723;51.194;5.112;2023-11-21T03:40:39;42.80;;;22.25;;
49828;SDS011;35723;51.194;5.112;2023-11-21T03:43:05;41.35;;;22.08;;
49828;SDS011;35723;51.194;5.112;2023-11-21T03:45:31;41.92;;;22.13;;
49828;SDS011;35723;51.194;5.112;2023-11-21T03:47:57;40.42;;;21.60;;
49828;SDS011;35723;51.194;5.112;2023-11-21T03:50:22;47.78;;;23.17;;
49828;SDS011;35723;51.194;5.112;2023-11-21T03:52:48;48.33;;;23.45;;
49828;SDS011;35723;51.194;5.112;2023-11-21T03:55:14;49.70;;;24.30;;
49828;SDS011;35723;51.194;5.112;2023-11-21T03:57:40;51.53;;;24.60;;
49828;SDS011;35723;51.194;5.112;2023-11-21T04:00:05;47.95;;;23.20;;
49828;SDS011;35723;51.194;5.112;2023-11-21T04:02:33;54.70;;;24.80;;
49828;SDS011;35723;51.194;5.112;2023-11-21T04:04:59;51.08;;;25.10;;
49828;SDS011;35723;51.194;5.112;2023-11-21T04:07:25;51.15;;;24.08;;
49828;SDS011;35723;51.194;5.112;2023-11-21T04:09:52;50.65;;;24.48;;
49828;SDS011;35723;51.194;5.112;2023-11-21T04:12:18;51.55;;;24.13;;
49828;SDS011;35723;51.194;5.112;2023-11-21T04:14:44;52.05;;;24.73;;
49828;SDS011;35723;51.194;5.112;2023-11-21T04:17:10;50.95;;;24.42;;
49828;SDS011;35723;51.194;5.112;2023-11-21T04:19:35;51.70;;;23.92;;
49828;SDS011;35723;51.194;5.112;2023-11-21T04:22:01;51.05;;;22.88;;
49828;SDS011;35723;51.194;5.112;2023-11-21T04:24:27;53.72;;;23.83;;
49828;SDS011;35723;51.194;5.112;2023-11-21T04:26:52;51.75;;;23.67;;
49828;SDS011;35723;51.194;5.112;2023-11-21T04:29:18;52.63;;;23.95;;
49828;SDS011;35723;51.194;5.112;2023-11-21T04:31:44;56.88;;;23.98;;
49828;SDS011;35723;51.194;5.112;2023-11-21T04:34:09;52.75;;;23.88;;
49828;SDS011;35723;51.194;5.112;2023-11-21T04:36:35;60.97;;;24.27;;
49828;SDS011;35723;51.194;5.112;2023-11-21T04:39:01;55.67;;;24.05;;
49828;SDS011;35723;51.194;5.112;2023-11-21T04:41:26;52.45;;;23.60;;
49828;SDS011;35723;51.194;5.112;2023-11-21T04:43:52;57.50;;;24.20;;
49828;SDS011;35723;51.194;5.112;2023-11-21T04:46:17;53.55;;;23.00;;
49828;SDS011;35723;51.194;5.112;2023-11-21T04:48:43;55.42;;;23.52;;
49828;SDS011;35723;51.194;5.112;2023-11-21T04:51:09;57.22;;;24.65;;
49828;SDS011;35723;51.194;5.112;2023-11-21T04:53:36;54.05;;;23.35;;
49828;SDS011;35723;51.194;5.112;2023-11-21T04:56:02;61.70;;;24.88;;
49828;SDS011;35723;51.194;5.112;2023-11-21T04:58:28;62.30;;;25.23;;
49828;SDS011;35723;51.194;5.112;2023-11-21T05:00:54;59.78;;;24.77;;
49828;SDS011;35723;51.194;5.112;2023-11-21T05:03:19;60.97;;;24.58;;
49828;SDS011;35723;51.194;5.112;2023-11-21T05:05:45;58.15;;;23.92;;
49828;SDS011;35723;51.194;5.112;2023-11-21T05:08:11;58.22;;;24.83;;
49828;SDS011;35723;51.194;5.112;2023-11-21T05:10:37;58.97;;;24.33;;
49828;SDS011;35723;51.194;5.112;2023-11-21T05:13:04;64.38;;;24.60;;
49828;SDS011;35723;51.194;5.112;2023-11-21T05:15:34;59.30;;;24.95;;
49828;SDS011;35723;51.194;5.112;2023-11-21T05:18:00;67.53;;;25.75;;
49828;SDS011;35723;51.194;5.112;2023-11-21T05:20:26;65.05;;;26.00;;
49828;SDS011;35723;51.194;5.112;2023-11-21T05:22:51;64.13;;;25.83;;
49828;SDS011;35723;51.194;5.112;2023-11-21T05:25:17;59.55;;;24.20;;
49828;SDS011;35723;51.194;5.112;2023-11-21T05:27:44;66.82;;;25.90;;
49828;SDS011;35723;51.194;5.112;2023-11-21T05:30:10;61.35;;;24.02;;
49828;SDS011;35723;51.194;5.112;2023-11-21T05:32:37;65.35;;;25.55;;
49828;SDS011;35723;51.194;5.112;2023-11-21T05:35:03;64.32;;;25.20;;
49828;SDS011;35723;51.194;5.112;2023-11-21T05:37:34;63.10;;;25.10;;
49828;SDS011;35723;51.194;5.112;2023-11-21T05:40:00;64.55;;;26.60;;
49828;SDS011;35723;51.194;5.112;2023-11-21T05:42:31;68.63;;;26.35;;
49828;SDS011;35723;51.194;5.112;2023-11-21T05:44:57;70.82;;;27.20;;
49828;SDS011;35723;51.194;5.112;2023-11-21T05:47:36;67.50;;;26.52;;
49828;SDS011;35723;51.194;5.112;2023-11-21T05:50:06;71.97;;;27.85;;
49828;SDS011;35723;51.194;5.112;2023-11-21T05:52:35;71.60;;;27.95;;
49828;SDS011;35723;51.194;5.112;2023-11-21T05:55:02;67.10;;;26.83;;
49828;SDS011;35723;51.194;5.112;2023-11-21T05:57:30;71.72;;;27.52;;
49828;SDS011;35723;51.194;5.112;2023-11-21T05:59:55;66.55;;;26.83;;
49828;SDS011;35723;51.194;5.112;2023-11-21T06:02:21;70.30;;;28.45;;
49828;SDS011;35723;51.194;5.112;2023-11-21T06:04:47;68.47;;;27.30;;
49828;SDS011;35723;51.194;5.112;2023-11-21T06:07:12;71.18;;;28.10;;
49828;SDS011;35723;51.194;5.112;2023-11-21T06:09:38;68.55;;;26.92;;
49828;SDS011;35723;51.194;5.112;2023-11-21T06:12:04;72.90;;;29.10;;
49828;SDS011;35723;51.194;5.112;2023-11-21T06:14:30;74.65;;;29.05;;
49828;SDS011;35723;51.194;5.112;2023-11-21T06:16:58;70.63;;;27.55;;
49828;SDS011;35723;51.194;5.112;2023-11-21T06:19:23;79.45;;;29.42;;
49828;SDS011;35723;51.194;5.112;2023-11-21T06:21:49;68.18;;;27.20;;
49828;SDS011;35723;51.194;5.112;2023-11-21T06:24:15;67.43;;;27.58;;
49828;SDS011;35723;51.194;5.112;2023-11-21T06:26:41;68.35;;;27.77;;
49828;SDS011;35723;51.194;5.112;2023-11-21T06:29:06;77.43;;;29.77;;
49828;SDS011;35723;51.194;5.112;2023-11-21T06:31:32;72.68;;;28.42;;
49828;SDS011;35723;51.194;5.112;2023-11-21T06:33:58;73.88;;;29.55;;
49828;SDS011;35723;51.194;5.112;2023-11-21T06:36:25;76.55;;;30.85;;
49828;SDS011;35723;51.194;5.112;2023-11-21T06:38:51;67.90;;;27.77;;
49828;SDS011;35723;51.194;5.112;2023-11-21T06:41:17;71.03;;;28.88;;
49828;SDS011;35723;51.194;5.112;2023-11-21T06:43:43;68.05;;;29.10;;
49828;SDS011;35723;51.194;5.112;2023-11-21T06:46:11;70.75;;;29.23;;
49828;SDS011;35723;51.194;5.112;2023-11-21T06:48:40;69.20;;;27.83;;
49828;SDS011;35723;51.194;5.112;2023-11-21T06:51:07;71.65;;;29.30;;
49828;SDS011;35723;51.194;5.112;2023-11-21T06:53:33;72.63;;;29.13;;
49828;SDS011;35723;51.194;5.112;2023-11-21T06:55:59;68.32;;;28.02;;
49828;SDS011;35723;51.194;5.112;2023-11-21T06:58:24;67.53;;;27.65;;
49828;SDS011;35723;51.194;5.112;2023-11-21T07:00:50;71.95;;;30.48;;
49828;SDS011;35723;51.194;5.112;2023-11-21T07:03:17;79.18;;;31.98;;
49828;SDS011;35723;51.194;5.112;2023-11-21T07:05:44;72.82;;;30.08;;
49828;SDS011;35723;51.194;5.112;2023-11-21T07:08:10;71.95;;;30.73;;
49828;SDS011;35723;51.194;5.112;2023-11-21T07:10:35;74.55;;;30.88;;
49828;SDS011;35723;51.194;5.112;2023-11-21T07:13:01;71.97;;;31.08;;
49828;SDS011;35723;51.194;5.112;2023-11-21T07:15:27;73.30;;;30.48;;
49828;SDS011;35723;51.194;5.112;2023-11-21T07:17:53;77.05;;;31.73;;
49828;SDS011;35723;51.194;5.112;2023-11-21T07:20:19;68.75;;;30.58;;
49828;SDS011;35723;51.194;5.112;2023-11-21T07:22:45;75.40;;;32.15;;
49828;SDS011;35723;51.194;5.112;2023-11-21T07:25:10;74.80;;;29.73;;
49828;SDS011;35723;51.194;5.112;2023-11-21T07:27:37;73.20;;;31.55;;
49828;SDS011;35723;51.194;5.112;2023-11-21T07:30:03;78.93;;;32.95;;
49828;SDS011;35723;51.194;5.112;2023-11-21T07:32:33;76.78;;;33.13;;
49828;SDS011;35723;51.194;5.112;2023-11-21T07:34:59;76.55;;;32.13;;
49828;SDS011;35723;51.194;5.112;2023-11-21T07:37:26;72.97;;;30.83;;
49828;SDS011;35723;51.194;5.112;2023-11-21T07:39:53;76.22;;;31.95;;
49828;SDS011;35723;51.194;5.112;2023-11-21T07:42:21;74.30;;;30.65;;
49828;SDS011;35723;51.194;5.112;2023-11-21T07:44:49;77.05;;;33.17;;
49828;SDS011;35723;51.194;5.112;2023-11-21T07:47:15;79.68;;;32.78;;
49828;SDS011;35723;51.194;5.112;2023-11-21T07:49:40;76.18;;;33.03;;
49828;SDS011;35723;51.194;5.112;2023-11-21T07:52:08;69.38;;;31.98;;
49828;SDS011;35723;51.194;5.112;2023-11-21T07:54:35;78.15;;;33.97;;
49828;SDS011;35723;51.194;5.112;2023-11-21T07:57:00;78.72;;;32.55;;
49828;SDS011;35723;51.194;5.112;2023-11-21T07:59:27;82.07;;;35.22;;
49828;SDS011;35723;51.194;5.112;2023-11-21T08:01:53;80.70;;;34.45;;
49828;SDS011;35723;51.194;5.112;2023-11-21T08:04:19;75.22;;;34.13;;
49828;SDS011;35723;51.194;5.112;2023-11-21T08:06:44;73.50;;;34.10;;
49828;SDS011;35723;51.194;5.112;2023-11-21T08:09:10;87.45;;;37.40;;
49828;SDS011;35723;51.194;5.112;2023-11-21T08:11:37;83.15;;;36.55;;
49828;SDS011;35723;51.194;5.112;2023-11-21T08:14:04;77.15;;;35.70;;
49828;SDS011;35723;51.194;5.112;2023-11-21T08:16:30;84.32;;;36.92;;
49828;SDS011;35723;51.194;5.112;2023-11-21T08:18:56;80.20;;;35.35;;
49828;SDS011;35723;51.194;5.112;2023-11-21T08:21:21;84.30;;;37.35;;
49828;SDS011;35723;51.194;5.112;2023-11-21T08:23:52;82.53;;;36.22;;
49828;SDS011;35723;51.194;5.112;2023-11-21T08:26:19;79.18;;;36.22;;
49828;SDS011;35723;51.194;5.112;2023-11-21T08:28:45;78.15;;;36.13;;
49828;SDS011;35723;51.194;5.112;2023-11-21T08:31:12;80.88;;;36.80;;
49828;SDS011;35723;51.194;5.112;2023-11-21T08:33:38;82.85;;;36.50;;
49828;SDS011;35723;51.194;5.112;2023-11-21T08:36:06;81.65;;;36.97;;
49828;SDS011;35723;51.194;5.112;2023-11-21T08:38:33;79.47;;;35.13;;
49828;SDS011;35723;51.194;5.112;2023-11-21T08:41:02;74.13;;;35.13;;
49828;SDS011;35723;51.194;5.112;2023-11-21T08:43:35;81.00;;;35.90;;
49828;SDS011;35723;51.194;5.112;2023-11-21T08:46:04;77.43;;;36.78;;
49828;SDS011;35723;51.194;5.112;2023-11-21T08:48:36;75.67;;;36.63;;
49828;SDS011;35723;51.194;5.112;2023-11-21T08:51:03;81.90;;;36.75;;
49828;SDS011;35723;51.194;5.112;2023-11-21T08:53:29;77.30;;;36.38;;
49828;SDS011;35723;51.194;5.112;2023-11-21T08:55:56;83.88;;;37.72;;
49828;SDS011;35723;51.194;5.112;2023-11-21T08:58:22;85.60;;;39.00;;
49828;SDS011;35723;51.194;5.112;2023-11-21T09:00:47;82.00;;;37.30;;
49828;SDS011;35723;51.194;5.112;2023-11-21T09:03:13;82.07;;;38.40;;
49828;SDS011;35723;51.194;5.112;2023-11-21T09:05:39;76.90;;;35.88;;
49828;SDS011;35723;51.194;5.112;2023-11-21T09:08:05;77.50;;;36.95;;
49828;SDS011;35723;51.194;5.112;2023-11-21T09:10:31;76.22;;;36.20;;
49828;SDS011;35723;51.194;5.112;2023-11-21T09:13:00;71.85;;;35.33;;
49828;SDS011;35723;51.194;5.112;2023-11-21T09:15:26;76.00;;;35.38;;
49828;SDS011;35723;51.194;5.112;2023-11-21T09:17:53;69.88;;;34.45;;
49828;SDS011;35723;51.194;5.112;2023-11-21T09:20:18;74.85;;;34.92;;
49828;SDS011;35723;51.194;5.112;2023-11-21T09:22:47;75.63;;;35.70;;
49828;SDS011;35723;51.194;5.112;2023-11-21T09:25:13;65.00;;;32.65;;
49828;SDS011;35723;51.194;5.112;2023-11-21T09:27:39;71.32;;;36.13;;
49828;SDS011;35723;51.194;5.112;2023-11-21T09:30:05;74.30;;;35.30;;
49828;SDS011;35723;51.194;5.112;2023-11-21T09:32:34;78.63;;;35.42;;
49828;SDS011;35723;51.194;5.112;2023-11-21T09:35:02;75.13;;;35.65;;
49828;SDS011;35723;51.194;5.112;2023-11-21T09:37:29;72.95;;;35.03;;
49828;SDS011;35723;51.194;5.112;2023-11-21T09:39:55;76.68;;;35.65;;
49828;SDS011;35723;51.194;5.112;2023-11-21T09:42:32;77.22;;;36.80;;
49828;SDS011;35723;51.194;5.112;2023-11-21T09:47:53;74.85;;;35.80;;
49828;SDS011;35723;51.194;5.112;2023-11-21T09:50:23;80.15;;;36.53;;
49828;SDS011;35723;51.194;5.112;2023-11-21T09:53:09;73.25;;;35.17;;
49828;SDS011;35723;51.194;5.112;2023-11-21T09:58:09;73.97;;;33.67;;
49828;SDS011;35723;51.194;5.112;2023-11-21T10:00:42;76.03;;;34.80;;
49828;SDS011;35723;51.194;5.112;2023-11-21T10:03:10;71.57;;;34.22;;
49828;SDS011;35723;51.194;5.112;2023-11-21T10:05:36;74.18;;;34.13;;
49828;SDS011;35723;51.194;5.112;2023-11-21T10:08:12;77.35;;;34.85;;
49828;SDS011;35723;51.194;5.112;2023-11-21T10:10:43;71.82;;;34.35;;
49828;SDS011;35723;51.194;5.112;2023-11-21T10:13:11;71.40;;;33.72;;
49828;SDS011;35723;51.194;5.112;2023-11-21T10:15:38;75.15;;;33.42;;
49828;SDS011;35723;51.194;5.112;2023-11-21T10:18:09;77.00;;;33.63;;
49828;SDS011;35723;51.194;5.112;2023-11-21T10:20:35;74.68;;;33.80;;
49828;SDS011;35723;51.194;5.112;2023-11-21T10:23:03;73.53;;;34.08;;
49828;SDS011;35723;51.194;5.112;2023-11-21T10:25:32;72.45;;;33.63;;
49828;SDS011;35723;51.194;5.112;2023-11-21T10:27:58;71.95;;;33.38;;
49828;SDS011;35723;51.194;5.112;2023-11-21T10:30:36;72.57;;;33.78;;
49828;SDS011;35723;51.194;5.112;2023-11-21T10:33:03;71.43;;;33.97;;
49828;SDS011;35723;51.194;5.112;2023-11-21T10:35:43;71.72;;;33.10;;
49828;SDS011;35723;51.194;5.112;2023-11-21T10:38:15;67.82;;;32.95;;
49828;SDS011;35723;51.194;5.112;2023-11-21T10:40:46;66.85;;;31.85;;
49828;SDS011;35723;51.194;5.112;2023-11-21T10:43:12;69.75;;;32.90;;
49828;SDS011;35723;51.194;5.112;2023-11-21T10:45:40;69.85;;;31.17;;
49828;SDS011;35723;51.194;5.112;2023-11-21T10:48:07;65.75;;;30.83;;
49828;SDS011;35723;51.194;5.112;2023-11-21T10:50:35;68.25;;;30.73;;
49828;SDS011;35723;51.194;5.112;2023-11-21T10:53:04;64.50;;;31.25;;
49828;SDS011;35723;51.194;5.112;2023-11-21T10:55:31;70.85;;;31.85;;
49828;SDS011;35723;51.194;5.112;2023-11-21T10:58:01;67.15;;;29.75;;
49828;SDS011;35723;51.194;5.112;2023-11-21T11:00:29;64.00;;;30.08;;
49828;SDS011;35723;51.194;5.112;2023-11-21T11:02:56;66.57;;;30.33;;
49828;SDS011;35723;51.194;5.112;2023-11-21T11:05:23;64.07;;;29.73;;
49828;SDS011;35723;51.194;5.112;2023-11-21T11:08:04;57.38;;;27.15;;
49828;SDS011;35723;51.194;5.112;2023-11-21T11:10:33;61.53;;;28.02;;
49828;SDS011;35723;51.194;5.112;2023-11-21T11:12:59;62.60;;;28.38;;
49828;SDS011;35723;51.194;5.112;2023-11-21T11:15:26;52.78;;;24.92;;
49828;SDS011;35723;51.194;5.112;2023-11-21T11:17:53;54.17;;;25.65;;
49828;SDS011;35723;51.194;5.112;2023-11-21T11:20:22;51.95;;;24.45;;
49828;SDS011;35723;51.194;5.112;2023-11-21T11:23:40;53.35;;;24.83;;
49828;SDS011;35723;51.194;5.112;2023-11-21T11:31:37;54.40;;;24.88;;
49828;SDS011;35723;51.194;5.112;2023-11-21T11:34:24;50.58;;;23.58;;
49828;SDS011;35723;51.194;5.112;2023-11-21T11:37:00;49.35;;;24.27;;
49828;SDS011;35723;51.194;5.112;2023-11-21T11:39:41;46.38;;;23.50;;
49828;SDS011;35723;51.194;5.112;2023-11-21T11:42:10;48.80;;;24.10;;
49828;SDS011;35723;51.194;5.112;2023-11-21T11:47:17;49.17;;;24.05;;
49828;SDS011;35723;51.194;5.112;2023-11-21T11:52:43;54.03;;;25.38;;
49828;SDS011;35723;51.194;5.112;2023-11-21T11:55:11;50.75;;;24.02;;
49828;SDS011;35723;51.194;5.112;2023-11-21T12:00:13;50.15;;;24.33;;
49828;SDS011;35723;51.194;5.112;2023-11-21T12:02:42;54.00;;;25.52;;
49828;SDS011;35723;51.194;5.112;2023-11-21T12:05:13;57.08;;;25.55;;
49828;SDS011;35723;51.194;5.112;2023-11-21T12:07:43;50.70;;;24.90;;
49828;SDS011;35723;51.194;5.112;2023-11-21T12:10:11;47.00;;;24.65;;
49828;SDS011;35723;51.194;5.112;2023-11-21T12:12:41;46.05;;;23.10;;
49828;SDS011;35723;51.194;5.112;2023-11-21T12:15:09;46.58;;;23.85;;
49828;SDS011;35723;51.194;5.112;2023-11-21T12:17:37;45.08;;;23.30;;
49828;SDS011;35723;51.194;5.112;2023-11-21T12:20:03;46.90;;;22.38;;
49828;SDS011;35723;51.194;5.112;2023-11-21T12:22:31;40.75;;;21.63;;
49828;SDS011;35723;51.194;5.112;2023-11-21T12:24:57;38.13;;;20.40;;
49828;SDS011;35723;51.194;5.112;2023-11-21T12:27:23;42.25;;;21.63;;
49828;SDS011;35723;51.194;5.112;2023-11-21T12:29:48;40.72;;;20.83;;
49828;SDS011;35723;51.194;5.112;2023-11-21T12:32:14;40.22;;;20.08;;
49828;SDS011;35723;51.194;5.112;2023-11-21T12:34:43;38.75;;;19.52;;
49828;SDS011;35723;51.194;5.112;2023-11-21T12:37:09;36.55;;;19.63;;
49828;SDS011;35723;51.194;5.112;2023-11-21T12:39:35;42.20;;;19.42;;
49828;SDS011;35723;51.194;5.112;2023-11-21T12:42:01;41.72;;;19.67;;
49828;SDS011;35723;51.194;5.112;2023-11-21T12:44:27;40.20;;;19.17;;
49828;SDS011;35723;51.194;5.112;2023-11-21T12:46:53;39.50;;;19.75;;
49828;SDS011;35723;51.194;5.112;2023-11-21T12:49:18;34.60;;;18.02;;
49828;SDS011;35723;51.194;5.112;2023-11-21T12:51:47;38.55;;;18.08;;
49828;SDS011;35723;51.194;5.112;2023-11-21T12:54:13;34.10;;;17.77;;
49828;SDS011;35723;51.194;5.112;2023-11-21T12:56:39;35.92;;;16.90;;
49828;SDS011;35723;51.194;5.112;2023-11-21T12:59:05;34.20;;;17.08;;
49828;SDS011;35723;51.194;5.112;2023-11-21T13:01:30;35.17;;;16.90;;
49828;SDS011;35723;51.194;5.112;2023-11-21T13:03:57;33.05;;;17.35;;
49828;SDS011;35723;51.194;5.112;2023-11-21T13:06:27;30.60;;;16.27;;
49828;SDS011;35723;51.194;5.112;2023-11-21T13:08:57;32.03;;;15.75;;
49828;SDS011;35723;51.194;5.112;2023-11-21T13:11:24;29.25;;;14.70;;
49828;SDS011;35723;51.194;5.112;2023-11-21T13:13:52;28.92;;;15.07;;
49828;SDS011;35723;51.194;5.112;2023-11-21T13:16:18;28.50;;;14.30;;
49828;SDS011;35723;51.194;5.112;2023-11-21T13:18:45;23.95;;;11.80;;
49828;SDS011;35723;51.194;5.112;2023-11-21T13:21:11;24.02;;;12.32;;
49828;SDS011;35723;51.194;5.112;2023-11-21T13:23:42;21.55;;;10.63;;
49828;SDS011;35723;51.194;5.112;2023-11-21T13:26:08;21.15;;;10.35;;
49828;SDS011;35723;51.194;5.112;2023-11-21T13:28:34;21.90;;;9.88;;
49828;SDS011;35723;51.194;5.112;2023-11-21T13:31:02;22.08;;;9.85;;
49828;SDS011;35723;51.194;5.112;2023-11-21T13:33:35;19.23;;;9.25;;
49828;SDS011;35723;51.194;5.112;2023-11-21T13:36:03;21.80;;;10.38;;
49828;SDS011;35723;51.194;5.112;2023-11-21T13:38:32;20.50;;;9.55;;
49828;SDS011;35723;51.194;5.112;2023-11-21T13:41:00;21.25;;;9.90;;
49828;SDS011;35723;51.194;5.112;2023-11-21T13:43:26;20.20;;;9.98;;
49828;SDS011;35723;51.194;5.112;2023-11-21T13:45:53;20.35;;;10.32;;
49828;SDS011;35723;51.194;5.112;2023-11-21T13:48:38;21.20;;;10.57;;
49828;SDS011;35723;51.194;5.112;2023-11-21T13:51:07;21.67;;;10.55;;
49828;SDS011;35723;51.194;5.112;2023-11-21T13:53:41;25.10;;;11.45;;
49828;SDS011;35723;51.194;5.112;2023-11-21T13:56:07;23.20;;;11.00;;
49828;SDS011;35723;51.194;5.112;2023-11-21T13:58:33;24.38;;;11.38;;
49828;SDS011;35723;51.194;5.112;2023-11-21T14:01:18;22.02;;;11.40;;
49828;SDS011;35723;51.194;5.112;2023-11-21T14:03:58;27.08;;;12.40;;
49828;SDS011;35723;51.194;5.112;2023-11-21T14:06:34;25.67;;;12.02;;
49828;SDS011;35723;51.194;5.112;2023-11-21T14:09:08;23.70;;;11.95;;
49828;SDS011;35723;51.194;5.112;2023-11-21T14:11:34;24.60;;;12.50;;
49828;SDS011;35723;51.194;5.112;2023-11-21T14:14:03;25.70;;;12.50;;
49828;SDS011;35723;51.194;5.112;2023-11-21T14:16:28;26.25;;;12.57;;
49828;SDS011;35723;51.194;5.112;2023-11-21T14:18:54;27.98;;;13.07;;
49828;SDS011;35723;51.194;5.112;2023-11-21T14:21:29;26.80;;;12.88;;
49828;SDS011;35723;51.194;5.112;2023-11-21T14:23:55;27.33;;;12.43;;
49828;SDS011;35723;51.194;5.112;2023-11-21T14:26:20;28.65;;;12.98;;
49828;SDS011;35723;51.194;5.112;2023-11-21T14:28:50;28.48;;;13.00;;
49828;SDS011;35723;51.194;5.112;2023-11-21T14:31:16;27.52;;;13.30;;
49828;SDS011;35723;51.194;5.112;2023-11-21T14:33:42;26.13;;;13.25;;
49828;SDS011;35723;51.194;5.112;2023-11-21T14:36:11;25.75;;;13.35;;
49828;SDS011;35723;51.194;5.112;2023-11-21T14:38:36;26.20;;;12.77;;
49828;SDS011;35723;51.194;5.112;2023-11-21T14:41:04;28.17;;;13.82;;